EWG2AL EGLL-EDDF
Flight info
| Callsign | EWG2AL |
|---|---|
| Flight time | 1h 17m |
| Altitude | 35000 |
| Route | BPK Q295 MATCH DCT REDFA DCT TACHA DCT NOLRU DCT DIXAT DIXAT1A |
| Aircraft | A320/M-SDE3FGHIRWY/LB1 |
Departure
| Time | 2026-05-05 12:33 |
|---|---|
| Airport | London Heathrow Airport (EGLL) |
Arrival
| Time | 2026-05-05 13:50 |
|---|---|
| Airport | Frankfurt Main Airport (EDDF) |
| Time | Latitude | Longitude | Altitude | Speed | Heading |
|---|---|---|---|---|---|
| 2026-05-05 11:53 | 51.46833 | -0.44979 | 86 ft | 0 kts | 360° |
| 2026-05-05 12:21 | 51.46828 | -0.44979 | 86 ft | 4 kts | 358° |
| 2026-05-05 12:21 | 51.46801 | -0.44974 | 86 ft | 4 kts | 344° |
| 2026-05-05 12:22 | 51.46776 | -0.44958 | 88 ft | 4 kts | 327° |
| 2026-05-05 12:22 | 51.46757 | -0.44931 | 89 ft | 4 kts | 298° |
| 2026-05-05 12:22 | 51.46751 | -0.44906 | 88 ft | 1 kts | 269° |
| 2026-05-05 12:25 | 51.46751 | -0.44912 | 90 ft | 2 kts | 269° |
| 2026-05-05 12:26 | 51.46751 | -0.44970 | 86 ft | 6 kts | 269° |
| 2026-05-05 12:26 | 51.46751 | -0.45030 | 86 ft | 5 kts | 269° |
| 2026-05-05 12:26 | 51.46750 | -0.45086 | 86 ft | 5 kts | 269° |
| 2026-05-05 12:26 | 51.46750 | -0.45176 | 89 ft | 11 kts | 269° |
| 2026-05-05 12:27 | 51.46749 | -0.45296 | 86 ft | 10 kts | 269° |
| 2026-05-05 12:27 | 51.46749 | -0.45423 | 86 ft | 16 kts | 270° |
| 2026-05-05 12:27 | 51.46749 | -0.45641 | 86 ft | 23 kts | 269° |
| 2026-05-05 12:27 | 51.46748 | -0.45906 | 86 ft | 25 kts | 270° |
| 2026-05-05 12:28 | 51.46747 | -0.46101 | 90 ft | 13 kts | 269° |
| 2026-05-05 12:28 | 51.46747 | -0.46242 | 89 ft | 12 kts | 270° |
| 2026-05-05 12:28 | 51.46747 | -0.46410 | 91 ft | 18 kts | 272° |
| 2026-05-05 12:28 | 51.46748 | -0.46614 | 86 ft | 19 kts | 270° |
| 2026-05-05 12:29 | 51.46746 | -0.46865 | 86 ft | 26 kts | 270° |
| 2026-05-05 12:29 | 51.46746 | -0.47147 | 86 ft | 17 kts | 270° |
| 2026-05-05 12:29 | 51.46744 | -0.47313 | 86 ft | 10 kts | 262° |
| 2026-05-05 12:29 | 51.46694 | -0.47347 | 89 ft | 8 kts | 179° |
| 2026-05-05 12:30 | 51.46653 | -0.47402 | 88 ft | 11 kts | 260° |
| 2026-05-05 12:30 | 51.46630 | -0.47494 | 87 ft | 8 kts | 192° |
| 2026-05-05 12:30 | 51.46624 | -0.47494 | 86 ft | 0 kts | 181° |
| 2026-05-05 12:31 | 51.46619 | -0.47494 | 86 ft | 5 kts | 180° |
| 2026-05-05 12:32 | 51.46577 | -0.47493 | 86 ft | 6 kts | 178° |
| 2026-05-05 12:32 | 51.46538 | -0.47492 | 90 ft | 6 kts | 179° |
| 2026-05-05 12:32 | 51.46491 | -0.47473 | 85 ft | 10 kts | 138° |
| 2026-05-05 12:32 | 51.46483 | -0.47329 | 86 ft | 23 kts | 88° |
| 2026-05-05 12:33 | 51.46485 | -0.46604 | 91 ft | 103 kts | 90° |
| 2026-05-05 12:33 | 51.46498 | -0.45121 | 176 ft | 154 kts | 85° |
| 2026-05-05 12:33 | 51.46506 | -0.43443 | 936 ft | 151 kts | 86° |
| 2026-05-05 12:33 | 51.46543 | -0.41766 | 1823 ft | 148 kts | 83° |
| 2026-05-05 12:34 | 51.46889 | -0.40258 | 2453 ft | 152 kts | 45° |
| 2026-05-05 12:34 | 51.47737 | -0.39069 | 2884 ft | 171 kts | 38° |
| 2026-05-05 12:34 | 51.48660 | -0.37739 | 3332 ft | 189 kts | 46° |
| 2026-05-05 12:34 | 51.49561 | -0.36039 | 3706 ft | 210 kts | 49° |
| 2026-05-05 12:35 | 51.50541 | -0.34098 | 4141 ft | 237 kts | 50° |
| 2026-05-05 12:35 | 51.51613 | -0.31935 | 4798 ft | 254 kts | 51° |
| 2026-05-05 12:35 | 51.52641 | -0.29587 | 5552 ft | 261 kts | 63° |
| 2026-05-05 12:35 | 51.53235 | -0.26805 | 6238 ft | 265 kts | 73° |
| 2026-05-05 12:36 | 51.53756 | -0.23902 | 6921 ft | 275 kts | 73° |
| 2026-05-05 12:36 | 51.54334 | -0.20978 | 7924 ft | 276 kts | 66° |
| 2026-05-05 12:36 | 51.55517 | -0.18555 | 8802 ft | 282 kts | 34° |
| 2026-05-05 12:36 | 51.57349 | -0.17465 | 9761 ft | 285 kts | 6° |
| 2026-05-05 12:37 | 51.59324 | -0.17232 | 10692 ft | 287 kts | 3° |
| 2026-05-05 12:37 | 51.61375 | -0.17056 | 11219 ft | 305 kts | 3° |
| 2026-05-05 12:37 | 51.63537 | -0.16566 | 11707 ft | 322 kts | 13° |
| 2026-05-05 12:37 | 51.65763 | -0.15549 | 12045 ft | 344 kts | 18° |
| 2026-05-05 12:38 | 51.68088 | -0.14278 | 12423 ft | 360 kts | 19° |
| 2026-05-05 12:38 | 51.70487 | -0.12931 | 13049 ft | 368 kts | 20° |
| 2026-05-05 12:38 | 51.72700 | -0.10850 | 13793 ft | 373 kts | 42° |
| 2026-05-05 12:38 | 51.74252 | -0.07496 | 14518 ft | 375 kts | 62° |
| 2026-05-05 12:39 | 51.75251 | -0.03591 | 15203 ft | 379 kts | 72° |
| 2026-05-05 12:39 | 51.75815 | 0.00585 | 15836 ft | 384 kts | 81° |
| 2026-05-05 12:39 | 51.76212 | 0.04865 | 16540 ft | 386 kts | 81° |
| 2026-05-05 12:39 | 51.76605 | 0.09126 | 17180 ft | 390 kts | 82° |
| 2026-05-05 12:40 | 51.76989 | 0.13489 | 17818 ft | 394 kts | 82° |
| 2026-05-05 12:40 | 51.77362 | 0.17894 | 18419 ft | 398 kts | 82° |
| 2026-05-05 12:40 | 51.77728 | 0.22334 | 18952 ft | 401 kts | 83° |
| 2026-05-05 12:40 | 51.78220 | 0.26792 | 19477 ft | 405 kts | 76° |
| 2026-05-05 12:41 | 51.78921 | 0.31223 | 19990 ft | 409 kts | 76° |
| 2026-05-05 12:41 | 51.79634 | 0.35706 | 20499 ft | 413 kts | 76° |
| 2026-05-05 12:41 | 51.80353 | 0.40229 | 21007 ft | 417 kts | 76° |
| 2026-05-05 12:41 | 51.81080 | 0.44804 | 21497 ft | 421 kts | 76° |
| 2026-05-05 12:42 | 51.81812 | 0.49422 | 21902 ft | 427 kts | 76° |
| 2026-05-05 12:42 | 51.82540 | 0.54029 | 22450 ft | 429 kts | 77° |
| 2026-05-05 12:42 | 51.83279 | 0.58720 | 22970 ft | 431 kts | 77° |
| 2026-05-05 12:42 | 51.84022 | 0.63433 | 23458 ft | 434 kts | 77° |
| 2026-05-05 12:43 | 51.84769 | 0.68178 | 23866 ft | 437 kts | 77° |
| 2026-05-05 12:43 | 51.85518 | 0.72962 | 24270 ft | 440 kts | 77° |
| 2026-05-05 12:43 | 51.86271 | 0.77784 | 24663 ft | 442 kts | 77° |
| 2026-05-05 12:43 | 51.87023 | 0.82627 | 25045 ft | 445 kts | 77° |
| 2026-05-05 12:44 | 51.87777 | 0.87513 | 25424 ft | 448 kts | 78° |
| 2026-05-05 12:44 | 51.88522 | 0.92355 | 25793 ft | 451 kts | 78° |
| 2026-05-05 12:44 | 51.89284 | 0.97317 | 26159 ft | 454 kts | 78° |
| 2026-05-05 12:44 | 51.90050 | 1.02294 | 26537 ft | 456 kts | 78° |
| 2026-05-05 12:45 | 51.90816 | 1.07286 | 26905 ft | 458 kts | 78° |
| 2026-05-05 12:45 | 51.91586 | 1.12333 | 27261 ft | 460 kts | 78° |
| 2026-05-05 12:45 | 51.92353 | 1.17382 | 27586 ft | 463 kts | 78° |
| 2026-05-05 12:45 | 51.93121 | 1.22465 | 27903 ft | 466 kts | 78° |
| 2026-05-05 12:46 | 51.93891 | 1.27579 | 28243 ft | 468 kts | 78° |
| 2026-05-05 12:46 | 51.94663 | 1.32719 | 28566 ft | 470 kts | 78° |
| 2026-05-05 12:46 | 51.95438 | 1.37882 | 28878 ft | 473 kts | 79° |
| 2026-05-05 12:46 | 51.96220 | 1.43075 | 29240 ft | 474 kts | 79° |
| 2026-05-05 12:47 | 51.96995 | 1.48253 | 29690 ft | 473 kts | 79° |
| 2026-05-05 12:47 | 51.97763 | 1.53429 | 30156 ft | 471 kts | 79° |
| 2026-05-05 12:47 | 51.98522 | 1.58586 | 30545 ft | 470 kts | 79° |
| 2026-05-05 12:47 | 51.99277 | 1.63744 | 30905 ft | 470 kts | 79° |
| 2026-05-05 12:48 | 52.00033 | 1.68912 | 31251 ft | 470 kts | 79° |
| 2026-05-05 12:48 | 52.00780 | 1.74005 | 31603 ft | 470 kts | 78° |
| 2026-05-05 12:48 | 52.01538 | 1.79183 | 31951 ft | 470 kts | 78° |
| 2026-05-05 12:48 | 52.02292 | 1.84338 | 32306 ft | 470 kts | 78° |
| 2026-05-05 12:49 | 52.03047 | 1.89518 | 32647 ft | 471 kts | 78° |
| 2026-05-05 12:49 | 52.03799 | 1.94701 | 32968 ft | 472 kts | 78° |
| 2026-05-05 12:49 | 52.04552 | 1.99911 | 33299 ft | 472 kts | 78° |
| 2026-05-05 12:49 | 52.05299 | 2.05116 | 33668 ft | 472 kts | 78° |
| 2026-05-05 12:50 | 52.06031 | 2.10240 | 34023 ft | 472 kts | 78° |
| 2026-05-05 12:50 | 52.06771 | 2.15444 | 34330 ft | 471 kts | 78° |
| 2026-05-05 12:50 | 52.07507 | 2.20632 | 34645 ft | 471 kts | 78° |
| 2026-05-05 12:50 | 52.08241 | 2.25827 | 34910 ft | 471 kts | 78° |
| 2026-05-05 12:51 | 52.09705 | 2.36217 | 34986 ft | 471 kts | 78° |
| 2026-05-05 12:51 | 52.11160 | 2.46608 | 34974 ft | 470 kts | 78° |
| 2026-05-05 12:52 | 52.12817 | 2.56910 | 34983 ft | 471 kts | 74° |
| 2026-05-05 12:52 | 52.14839 | 2.67068 | 34983 ft | 472 kts | 72° |
| 2026-05-05 12:53 | 52.16879 | 2.77151 | 34981 ft | 471 kts | 73° |
| 2026-05-05 12:53 | 52.18825 | 2.87348 | 34981 ft | 471 kts | 74° |
| 2026-05-05 12:54 | 52.21664 | 3.02729 | 34960 ft | 472 kts | 75° |
| 2026-05-05 12:55 | 52.23541 | 3.12937 | 34958 ft | 472 kts | 75° |
| 2026-05-05 12:55 | 52.24405 | 3.23464 | 34971 ft | 467 kts | 94° |
| 2026-05-05 12:56 | 52.23281 | 3.33813 | 34955 ft | 461 kts | 112° |
| 2026-05-05 12:56 | 52.20977 | 3.43566 | 34953 ft | 460 kts | 114° |
| 2026-05-05 12:57 | 52.18644 | 3.53278 | 34956 ft | 460 kts | 115° |
| 2026-05-05 12:57 | 52.16304 | 3.62983 | 34954 ft | 460 kts | 115° |
| 2026-05-05 12:58 | 52.13959 | 3.72671 | 34958 ft | 460 kts | 115° |
| 2026-05-05 12:58 | 52.11622 | 3.82293 | 34953 ft | 460 kts | 115° |
| 2026-05-05 12:59 | 52.09259 | 3.91971 | 34956 ft | 460 kts | 115° |
| 2026-05-05 12:59 | 52.06886 | 4.01626 | 34940 ft | 459 kts | 116° |
| 2026-05-05 13:00 | 52.03333 | 4.16020 | 34939 ft | 459 kts | 116° |
| 2026-05-05 13:01 | 51.98556 | 4.35243 | 34929 ft | 459 kts | 116° |
| 2026-05-05 13:01 | 51.96162 | 4.44835 | 34924 ft | 459 kts | 116° |
| 2026-05-05 13:02 | 51.93763 | 4.54412 | 34935 ft | 458 kts | 117° |
| 2026-05-05 13:02 | 51.91351 | 4.63962 | 34937 ft | 457 kts | 117° |
| 2026-05-05 13:03 | 51.88933 | 4.73477 | 34945 ft | 457 kts | 117° |
| 2026-05-05 13:03 | 51.86529 | 4.82917 | 34944 ft | 456 kts | 117° |
| 2026-05-05 13:04 | 51.84101 | 4.92403 | 34930 ft | 456 kts | 117° |
| 2026-05-05 13:04 | 51.81667 | 5.01901 | 34927 ft | 457 kts | 117° |
| 2026-05-05 13:05 | 51.79224 | 5.11401 | 34926 ft | 457 kts | 117° |
| 2026-05-05 13:05 | 51.76784 | 5.20807 | 34926 ft | 457 kts | 117° |
| 2026-05-05 13:06 | 51.74319 | 5.30282 | 34920 ft | 457 kts | 117° |
| 2026-05-05 13:06 | 51.71851 | 5.39734 | 34908 ft | 457 kts | 117° |
| 2026-05-05 13:07 | 51.69373 | 5.49192 | 34901 ft | 458 kts | 117° |
| 2026-05-05 13:07 | 51.66886 | 5.58641 | 34901 ft | 458 kts | 117° |
| 2026-05-05 13:08 | 51.64414 | 5.68012 | 34916 ft | 457 kts | 117° |
| 2026-05-05 13:08 | 51.61924 | 5.77415 | 34923 ft | 456 kts | 117° |
| 2026-05-05 13:09 | 51.59828 | 5.85277 | 34913 ft | 456 kts | 118° |
| 2026-05-05 13:09 | 51.57335 | 5.94580 | 34915 ft | 455 kts | 118° |
| 2026-05-05 13:10 | 51.54814 | 6.03951 | 34917 ft | 455 kts | 118° |
| 2026-05-05 13:10 | 51.52302 | 6.13289 | 34918 ft | 455 kts | 118° |
| 2026-05-05 13:11 | 51.49797 | 6.22565 | 34913 ft | 455 kts | 117° |
| 2026-05-05 13:11 | 51.47418 | 6.32006 | 34891 ft | 458 kts | 116° |
| 2026-05-05 13:12 | 51.45136 | 6.41570 | 34883 ft | 460 kts | 116° |
| 2026-05-05 13:12 | 51.42824 | 6.51144 | 34876 ft | 461 kts | 116° |
| 2026-05-05 13:13 | 51.40459 | 6.60688 | 34869 ft | 461 kts | 116° |
| 2026-05-05 13:13 | 51.38074 | 6.70215 | 34868 ft | 461 kts | 116° |
| 2026-05-05 13:14 | 51.35698 | 6.79730 | 34862 ft | 460 kts | 117° |
| 2026-05-05 13:14 | 51.33322 | 6.89195 | 34871 ft | 458 kts | 117° |
| 2026-05-05 13:15 | 51.30934 | 6.98651 | 34895 ft | 458 kts | 117° |
| 2026-05-05 13:15 | 51.28399 | 7.07963 | 34886 ft | 452 kts | 125° |
| 2026-05-05 13:16 | 51.24552 | 7.15573 | 34875 ft | 438 kts | 144° |
| 2026-05-05 13:16 | 51.19539 | 7.20787 | 34860 ft | 426 kts | 159° |
| 2026-05-05 13:17 | 51.14220 | 7.24989 | 34858 ft | 426 kts | 158° |
| 2026-05-05 13:17 | 51.08919 | 7.29225 | 34849 ft | 425 kts | 157° |
| 2026-05-05 13:18 | 51.06325 | 7.31369 | 34670 ft | 416 kts | 157° |
| 2026-05-05 13:18 | 51.03739 | 7.33524 | 33537 ft | 424 kts | 157° |
| 2026-05-05 13:18 | 51.01088 | 7.35726 | 32352 ft | 432 kts | 157° |
| 2026-05-05 13:18 | 50.98400 | 7.37947 | 31173 ft | 439 kts | 156° |
| 2026-05-05 13:19 | 50.95664 | 7.40200 | 30007 ft | 446 kts | 156° |
| 2026-05-05 13:19 | 50.92925 | 7.42452 | 28630 ft | 452 kts | 155° |
| 2026-05-05 13:19 | 50.90114 | 7.44759 | 27251 ft | 458 kts | 155° |
| 2026-05-05 13:19 | 50.87277 | 7.47091 | 25922 ft | 462 kts | 155° |
| 2026-05-05 13:20 | 50.84406 | 7.49443 | 24692 ft | 465 kts | 154° |
| 2026-05-05 13:20 | 50.81537 | 7.51782 | 23638 ft | 462 kts | 154° |
| 2026-05-05 13:20 | 50.78681 | 7.54105 | 22538 ft | 459 kts | 154° |
| 2026-05-05 13:20 | 50.75854 | 7.56405 | 21550 ft | 455 kts | 154° |
| 2026-05-05 13:21 | 50.73054 | 7.58685 | 20641 ft | 450 kts | 154° |
| 2026-05-05 13:21 | 50.70337 | 7.60893 | 20124 ft | 437 kts | 154° |
| 2026-05-05 13:21 | 50.67694 | 7.63039 | 19996 ft | 417 kts | 154° |
| 2026-05-05 13:21 | 50.65176 | 7.65089 | 19874 ft | 399 kts | 154° |
| 2026-05-05 13:22 | 50.62759 | 7.67051 | 19752 ft | 382 kts | 154° |
| 2026-05-05 13:22 | 50.60443 | 7.68923 | 19615 ft | 367 kts | 154° |
| 2026-05-05 13:22 | 50.58212 | 7.70721 | 19493 ft | 353 kts | 154° |
| 2026-05-05 13:22 | 50.56070 | 7.72448 | 19347 ft | 337 kts | 154° |
| 2026-05-05 13:23 | 50.54023 | 7.74097 | 18789 ft | 327 kts | 154° |
| 2026-05-05 13:23 | 50.52011 | 7.75709 | 18126 ft | 322 kts | 154° |
| 2026-05-05 13:23 | 50.50276 | 7.77092 | 17458 ft | 319 kts | 154° |
| 2026-05-05 13:23 | 50.48304 | 7.78671 | 16716 ft | 316 kts | 154° |
| 2026-05-05 13:24 | 50.46370 | 7.80280 | 16125 ft | 318 kts | 148° |
| 2026-05-05 13:24 | 50.44631 | 7.82643 | 15879 ft | 344 kts | 136° |
| 2026-05-05 13:24 | 50.42883 | 7.85380 | 15623 ft | 364 kts | 136° |
| 2026-05-05 13:24 | 50.41049 | 7.88275 | 15372 ft | 388 kts | 136° |
| 2026-05-05 13:25 | 50.39144 | 7.91298 | 15115 ft | 384 kts | 136° |
| 2026-05-05 13:25 | 50.37300 | 7.94233 | 14870 ft | 371 kts | 136° |
| 2026-05-05 13:25 | 50.35516 | 7.97062 | 14626 ft | 360 kts | 136° |
| 2026-05-05 13:25 | 50.33781 | 7.99804 | 14384 ft | 349 kts | 136° |
| 2026-05-05 13:26 | 50.32094 | 8.02464 | 14143 ft | 339 kts | 136° |
| 2026-05-05 13:26 | 50.30453 | 8.05049 | 13909 ft | 331 kts | 136° |
| 2026-05-05 13:26 | 50.28845 | 8.07578 | 13679 ft | 325 kts | 136° |
| 2026-05-05 13:26 | 50.27272 | 8.10049 | 13426 ft | 323 kts | 136° |
| 2026-05-05 13:27 | 50.25683 | 8.12534 | 13165 ft | 322 kts | 136° |
| 2026-05-05 13:27 | 50.24104 | 8.15002 | 12904 ft | 321 kts | 136° |
| 2026-05-05 13:27 | 50.22527 | 8.17466 | 12643 ft | 320 kts | 136° |
| 2026-05-05 13:27 | 50.20953 | 8.19924 | 12385 ft | 318 kts | 136° |
| 2026-05-05 13:28 | 50.19391 | 8.22368 | 12130 ft | 317 kts | 136° |
| 2026-05-05 13:28 | 50.17833 | 8.24801 | 11876 ft | 316 kts | 136° |
| 2026-05-05 13:28 | 50.16275 | 8.27230 | 11618 ft | 315 kts | 136° |
| 2026-05-05 13:28 | 50.14852 | 8.29785 | 11372 ft | 315 kts | 128° |
| 2026-05-05 13:29 | 50.13680 | 8.32669 | 11125 ft | 315 kts | 119° |
| 2026-05-05 13:29 | 50.12813 | 8.35770 | 10875 ft | 308 kts | 110° |
| 2026-05-05 13:29 | 50.12269 | 8.38964 | 10627 ft | 302 kts | 102° |
| 2026-05-05 13:29 | 50.12032 | 8.42181 | 10376 ft | 296 kts | 94° |
| 2026-05-05 13:30 | 50.12087 | 8.45372 | 10129 ft | 293 kts | 86° |
| 2026-05-05 13:30 | 50.12418 | 8.48497 | 9891 ft | 292 kts | 78° |
| 2026-05-05 13:30 | 50.13036 | 8.51507 | 9702 ft | 292 kts | 70° |
| 2026-05-05 13:30 | 50.13752 | 8.54436 | 9578 ft | 292 kts | 71° |
| 2026-05-05 13:31 | 50.14463 | 8.57398 | 9340 ft | 291 kts | 71° |
| 2026-05-05 13:31 | 50.15160 | 8.60348 | 9083 ft | 288 kts | 71° |
| 2026-05-05 13:31 | 50.15841 | 8.63248 | 8813 ft | 281 kts | 71° |
| 2026-05-05 13:31 | 50.16506 | 8.66076 | 8554 ft | 275 kts | 71° |
| 2026-05-05 13:32 | 50.17165 | 8.68858 | 8296 ft | 269 kts | 71° |
| 2026-05-05 13:32 | 50.17809 | 8.71571 | 8037 ft | 263 kts | 71° |
| 2026-05-05 13:32 | 50.18443 | 8.74250 | 7611 ft | 265 kts | 71° |
| 2026-05-05 13:32 | 50.19084 | 8.76962 | 7108 ft | 266 kts | 71° |
| 2026-05-05 13:33 | 50.19717 | 8.79637 | 6620 ft | 260 kts | 71° |
| 2026-05-05 13:33 | 50.20282 | 8.82277 | 6126 ft | 252 kts | 81° |
| 2026-05-05 13:33 | 50.20218 | 8.84908 | 5656 ft | 237 kts | 116° |
| 2026-05-05 13:33 | 50.19051 | 8.86624 | 5524 ft | 255 kts | 162° |
| 2026-05-05 13:34 | 50.17165 | 8.86600 | 5414 ft | 283 kts | 200° |
| 2026-05-05 13:34 | 50.15584 | 8.84908 | 5161 ft | 273 kts | 224° |
| 2026-05-05 13:34 | 50.14304 | 8.82807 | 4996 ft | 260 kts | 226° |
| 2026-05-05 13:34 | 50.13090 | 8.80796 | 4821 ft | 249 kts | 225° |
| 2026-05-05 13:35 | 50.11864 | 8.78984 | 4532 ft | 244 kts | 220° |
| 2026-05-05 13:35 | 50.10533 | 8.77282 | 4118 ft | 244 kts | 222° |
| 2026-05-05 13:35 | 50.09603 | 8.75114 | 3624 ft | 249 kts | 249° |
| 2026-05-05 13:35 | 50.09090 | 8.72540 | 3219 ft | 248 kts | 253° |
| 2026-05-05 13:36 | 50.08592 | 8.69988 | 2860 ft | 242 kts | 250° |
| 2026-05-05 13:36 | 50.08017 | 8.67620 | 2513 ft | 226 kts | 248° |
| 2026-05-05 13:36 | 50.07463 | 8.65418 | 2182 ft | 212 kts | 248° |
| 2026-05-05 13:36 | 50.06959 | 8.63331 | 1906 ft | 199 kts | 250° |
| 2026-05-05 13:37 | 50.06509 | 8.61382 | 1751 ft | 183 kts | 249° |
| 2026-05-05 13:37 | 50.06067 | 8.59575 | 1612 ft | 181 kts | 248° |
| 2026-05-05 13:37 | 50.05580 | 8.57709 | 1534 ft | 192 kts | 247° |
| 2026-05-05 13:37 | 50.05063 | 8.55748 | 1581 ft | 199 kts | 248° |
| 2026-05-05 13:38 | 50.04579 | 8.53703 | 1732 ft | 203 kts | 250° |
| 2026-05-05 13:38 | 50.04130 | 8.51630 | 1933 ft | 202 kts | 252° |
| 2026-05-05 13:38 | 50.03856 | 8.49403 | 2186 ft | 220 kts | 265° |
| 2026-05-05 13:38 | 50.03902 | 8.46987 | 2474 ft | 226 kts | 277° |
| 2026-05-05 13:39 | 50.04314 | 8.44661 | 2840 ft | 227 kts | 295° |
| 2026-05-05 13:39 | 50.05320 | 8.42756 | 3265 ft | 234 kts | 324° |
| 2026-05-05 13:39 | 50.06833 | 8.41879 | 3549 ft | 236 kts | 355° |
| 2026-05-05 13:39 | 50.08465 | 8.42216 | 3845 ft | 239 kts | 12° |
| 2026-05-05 13:40 | 50.10105 | 8.42742 | 4102 ft | 241 kts | 9° |
| 2026-05-05 13:40 | 50.11764 | 8.43165 | 4411 ft | 242 kts | 9° |
| 2026-05-05 13:40 | 50.13520 | 8.43654 | 4687 ft | 269 kts | 11° |
| 2026-05-05 13:40 | 50.15375 | 8.44225 | 4815 ft | 274 kts | 11° |
| 2026-05-05 13:41 | 50.17251 | 8.44840 | 4967 ft | 276 kts | 13° |
| 2026-05-05 13:41 | 50.18959 | 8.46138 | 5041 ft | 276 kts | 43° |
| 2026-05-05 13:41 | 50.19942 | 8.48626 | 5009 ft | 271 kts | 77° |
| 2026-05-05 13:41 | 50.20207 | 8.51536 | 5194 ft | 272 kts | 82° |
| 2026-05-05 13:42 | 50.20671 | 8.54425 | 5070 ft | 274 kts | 73° |
| 2026-05-05 13:42 | 50.21223 | 8.57257 | 5015 ft | 273 kts | 75° |
| 2026-05-05 13:42 | 50.21754 | 8.60111 | 4974 ft | 273 kts | 75° |
| 2026-05-05 13:42 | 50.22348 | 8.62922 | 5001 ft | 273 kts | 69° |
| 2026-05-05 13:43 | 50.23053 | 8.65676 | 4989 ft | 273 kts | 69° |
| 2026-05-05 13:43 | 50.23763 | 8.68436 | 4980 ft | 274 kts | 69° |
| 2026-05-05 13:43 | 50.24475 | 8.71191 | 4978 ft | 273 kts | 69° |
| 2026-05-05 13:43 | 50.25191 | 8.73944 | 4976 ft | 273 kts | 69° |
| 2026-05-05 13:44 | 50.25590 | 8.76802 | 5041 ft | 270 kts | 96° |
| 2026-05-05 13:44 | 50.24969 | 8.79523 | 5069 ft | 268 kts | 127° |
| 2026-05-05 13:44 | 50.23570 | 8.81361 | 4947 ft | 264 kts | 157° |
| 2026-05-05 13:44 | 50.21810 | 8.81838 | 4872 ft | 254 kts | 185° |
| 2026-05-05 13:45 | 50.20142 | 8.81119 | 4902 ft | 253 kts | 206° |
| 2026-05-05 13:45 | 50.18592 | 8.79808 | 5008 ft | 254 kts | 207° |
| 2026-05-05 13:45 | 50.17023 | 8.78527 | 5002 ft | 254 kts | 207° |
| 2026-05-05 13:45 | 50.15468 | 8.77358 | 4846 ft | 239 kts | 195° |
| 2026-05-05 13:46 | 50.13872 | 8.77178 | 4242 ft | 228 kts | 171° |
| 2026-05-05 13:46 | 50.12349 | 8.77653 | 3825 ft | 213 kts | 173° |
| 2026-05-05 13:46 | 50.10936 | 8.77339 | 3723 ft | 205 kts | 208° |
| 2026-05-05 13:46 | 50.09957 | 8.75890 | 3554 ft | 192 kts | 242° |
| 2026-05-05 13:47 | 50.09475 | 8.73970 | 3397 ft | 190 kts | 250° |
| 2026-05-05 13:47 | 50.09026 | 8.72064 | 3237 ft | 187 kts | 249° |
| 2026-05-05 13:47 | 50.08573 | 8.70157 | 2861 ft | 187 kts | 249° |
| 2026-05-05 13:47 | 50.08134 | 8.68289 | 2576 ft | 181 kts | 249° |
| 2026-05-05 13:48 | 50.07710 | 8.66452 | 2238 ft | 180 kts | 249° |
| 2026-05-05 13:48 | 50.07282 | 8.64660 | 1971 ft | 171 kts | 248° |
| 2026-05-05 13:48 | 50.06879 | 8.62972 | 1733 ft | 162 kts | 249° |
| 2026-05-05 13:48 | 50.06512 | 8.61402 | 1539 ft | 150 kts | 248° |
| 2026-05-05 13:49 | 50.06160 | 8.59965 | 1403 ft | 137 kts | 248° |
| 2026-05-05 13:49 | 50.05834 | 8.58590 | 1160 ft | 134 kts | 248° |
| 2026-05-05 13:49 | 50.05507 | 8.57250 | 944 ft | 130 kts | 248° |
| 2026-05-05 13:49 | 50.05190 | 8.55937 | 781 ft | 131 kts | 247° |
| 2026-05-05 13:50 | 50.04867 | 8.54584 | 597 ft | 133 kts | 246° |
| 2026-05-05 13:50 | 50.04549 | 8.53239 | 402 ft | 130 kts | 248° |
| 2026-05-05 13:50 | 50.04248 | 8.51972 | 336 ft | 113 kts | 249° |
| 2026-05-05 13:50 | 50.04078 | 8.51268 | 329 ft | 27 kts | 250° |
| 2026-05-05 13:51 | 50.03981 | 8.51031 | 326 ft | 18 kts | 235° |
| 2026-05-05 13:51 | 50.03892 | 8.50899 | 324 ft | 14 kts | 220° |
| 2026-05-05 13:51 | 50.03841 | 8.50836 | 326 ft | 9 kts | 210° |
| 2026-05-05 13:51 | 50.03800 | 8.50837 | 329 ft | 3 kts | 147° |
| 2026-05-05 13:52 | 50.03778 | 8.50874 | 332 ft | 10 kts | 127° |
| 2026-05-05 13:52 | 50.03756 | 8.50953 | 331 ft | 6 kts | 111° |
| 2026-05-05 13:52 | 50.03737 | 8.51016 | 338 ft | 9 kts | 115° |
| 2026-05-05 13:52 | 50.03709 | 8.51110 | 353 ft | 14 kts | 116° |
| 2026-05-05 13:53 | 50.03650 | 8.51297 | 352 ft | 21 kts | 116° |
| 2026-05-05 13:53 | 50.03592 | 8.51478 | 359 ft | 17 kts | 116° |
| 2026-05-05 13:53 | 50.03555 | 8.51594 | 358 ft | 19 kts | 116° |
| 2026-05-05 13:53 | 50.03510 | 8.51737 | 361 ft | 13 kts | 116° |
| 2026-05-05 13:54 | 50.03515 | 8.51861 | 352 ft | 9 kts | 83° |
| 2026-05-05 13:54 | 50.03523 | 8.51965 | 351 ft | 10 kts | 83° |
| 2026-05-05 13:54 | 50.03535 | 8.52133 | 354 ft | 13 kts | 82° |
| 2026-05-05 13:54 | 50.03544 | 8.52235 | 347 ft | 15 kts | 82° |
| 2026-05-05 13:55 | 50.03570 | 8.52388 | 340 ft | 14 kts | 69° |
| 2026-05-05 13:55 | 50.03601 | 8.52522 | 338 ft | 11 kts | 84° |
| 2026-05-05 13:55 | 50.03598 | 8.52636 | 341 ft | 10 kts | 80° |
| 2026-05-05 13:55 | 50.03621 | 8.52733 | 354 ft | 9 kts | 70° |
| 2026-05-05 13:56 | 50.03634 | 8.52818 | 344 ft | 8 kts | 95° |
| 2026-05-05 13:56 | 50.03600 | 8.52878 | 336 ft | 8 kts | 147° |
| 2026-05-05 13:56 | 50.03580 | 8.52953 | 340 ft | 8 kts | 80° |
| 2026-05-05 13:56 | 50.03600 | 8.53028 | 338 ft | 7 kts | 66° |
| 2026-05-05 13:57 | 50.03617 | 8.53097 | 338 ft | 8 kts | 74° |
| 2026-05-05 13:57 | 50.03642 | 8.53206 | 338 ft | 9 kts | 69° |
| 2026-05-05 13:57 | 50.03663 | 8.53296 | 341 ft | 8 kts | 70° |
| 2026-05-05 13:57 | 50.03681 | 8.53374 | 351 ft | 7 kts | 70° |
| 2026-05-05 13:58 | 50.03699 | 8.53447 | 342 ft | 7 kts | 70° |
| 2026-05-05 13:58 | 50.03695 | 8.53551 | 348 ft | 14 kts | 137° |
| 2026-05-05 13:58 | 50.03623 | 8.53560 | 339 ft | 12 kts | 206° |
| 2026-05-05 13:58 | 50.03546 | 8.53505 | 336 ft | 9 kts | 205° |
| 2026-05-05 13:59 | 50.03522 | 8.53488 | 340 ft | 0 kts | 199° |
| 2026-05-05 14:00 | 50.03484 | 8.53492 | 336 ft | 10 kts | 144° |
| 2026-05-05 14:01 | 50.03483 | 8.53585 | 336 ft | 8 kts | 68° |
| 2026-05-05 14:01 | 50.03525 | 8.53763 | 336 ft | 45 kts | 70° |
| 2026-05-05 14:01 | 50.03609 | 8.54115 | 349 ft | 28 kts | 69° |
| 2026-05-05 14:01 | 50.03681 | 8.54411 | 350 ft | 30 kts | 69° |
| 2026-05-05 14:02 | 50.03755 | 8.54725 | 352 ft | 31 kts | 69° |
| 2026-05-05 14:02 | 50.03833 | 8.55051 | 351 ft | 33 kts | 69° |
| 2026-05-05 14:02 | 50.03914 | 8.55388 | 357 ft | 33 kts | 70° |
| 2026-05-05 14:02 | 50.03996 | 8.55731 | 358 ft | 35 kts | 69° |
| 2026-05-05 14:03 | 50.04042 | 8.55925 | 357 ft | 13 kts | 70° |
| 2026-05-05 14:03 | 50.04075 | 8.56059 | 357 ft | 17 kts | 68° |
| 2026-05-05 14:03 | 50.04118 | 8.56237 | 359 ft | 13 kts | 71° |
| 2026-05-05 14:03 | 50.04182 | 8.56274 | 356 ft | 10 kts | 340° |
| 2026-05-05 14:04 | 50.04252 | 8.56231 | 359 ft | 11 kts | 340° |
| 2026-05-05 14:04 | 50.04291 | 8.56156 | 358 ft | 11 kts | 266° |
| 2026-05-05 14:04 | 50.04329 | 8.56063 | 356 ft | 11 kts | 340° |
| 2026-05-05 14:04 | 50.04398 | 8.56027 | 361 ft | 10 kts | 350° |
| 2026-05-05 14:05 | 50.04444 | 8.56083 | 359 ft | 9 kts | 63° |
| 2026-05-05 14:05 | 50.04474 | 8.56208 | 362 ft | 18 kts | 69° |
| 2026-05-05 14:05 | 50.04510 | 8.56356 | 356 ft | 8 kts | 69° |
| 2026-05-05 14:05 | 50.04507 | 8.56397 | 358 ft | 3 kts | 142° |
| 2026-05-05 14:06 | 50.04490 | 8.56403 | 360 ft | 2 kts | 157° |
| 2026-05-05 14:06 | 50.04477 | 8.56413 | 362 ft | 2 kts | 155° |
| 2026-05-05 14:06 | 50.04464 | 8.56422 | 356 ft | 2 kts | 155° |
| 2026-05-05 14:06 | 50.04455 | 8.56429 | 363 ft | 1 kts | 154° |
| 2026-05-05 14:07 | 50.04454 | 8.56430 | 356 ft | 0 kts | 154° |